createdAt,value
2018-11-02T00:00:41.336Z,97.80
2018-11-02T00:03:11.018Z,97.80
2018-11-02T00:05:39.633Z,97.50
2018-11-02T00:08:09.254Z,97.50
2018-11-02T00:10:38.238Z,97.50
2018-11-02T00:13:06.930Z,97.40
2018-11-02T00:15:35.723Z,97.50
2018-11-02T00:18:04.407Z,97.50
2018-11-02T00:20:33.394Z,97.60
2018-11-02T00:23:02.412Z,97.60
2018-11-02T00:25:31.035Z,97.70
2018-11-02T00:27:59.730Z,97.90
2018-11-02T00:30:28.660Z,98.00
2018-11-02T00:32:57.396Z,98.20
2018-11-02T00:35:25.995Z,98.20
2018-11-02T00:37:54.645Z,98.20
2018-11-02T00:40:23.644Z,98.00
2018-11-02T00:42:52.504Z,98.00
2018-11-02T00:45:21.200Z,98.10
2018-11-02T00:47:49.881Z,98.20
2018-11-02T00:50:18.469Z,98.20
2018-11-02T00:52:48.307Z,98.20
2018-11-02T00:55:17.695Z,98.20
2018-11-02T00:57:46.700Z,98.10
2018-11-02T01:00:16.002Z,98.10
2018-11-02T01:02:45.568Z,98.00
2018-11-02T01:05:14.686Z,98.00
2018-11-02T01:07:43.316Z,98.00
2018-11-02T01:10:12.181Z,98.30
2018-11-02T01:12:40.914Z,98.40
2018-11-02T01:15:10.398Z,98.50
2018-11-02T01:17:40.248Z,98.40
2018-11-02T01:20:10.495Z,98.30
2018-11-02T01:22:39.374Z,98.30
2018-11-02T01:25:08.563Z,98.30
2018-11-02T01:27:37.597Z,98.40
2018-11-02T01:30:06.756Z,98.60
2018-11-02T01:32:35.438Z,98.70
2018-11-02T01:35:05.037Z,98.60
2018-11-02T01:37:33.724Z,98.70
2018-11-02T01:40:02.385Z,98.80
2018-11-02T01:42:31.014Z,98.80
2018-11-02T01:44:59.662Z,99.00
2018-11-02T01:47:28.267Z,99.20
2018-11-02T01:49:56.992Z,99.10
2018-11-02T01:52:25.596Z,99.10
2018-11-02T01:54:54.241Z,99.00
2018-11-02T01:57:23.032Z,98.90
2018-11-02T01:59:52.022Z,98.90
2018-11-02T02:02:20.928Z,98.90
2018-11-02T02:04:49.449Z,98.90
2018-11-02T02:07:18.125Z,98.90
2018-11-02T02:09:46.770Z,98.90
2018-11-02T02:12:15.488Z,99.00
2018-11-02T02:14:44.140Z,99.00
2018-11-02T02:17:12.781Z,99.10
2018-11-02T02:19:41.563Z,99.20
2018-11-02T02:22:10.505Z,99.10
2018-11-02T02:24:39.209Z,99.10
2018-11-02T02:27:08.076Z,99.10
2018-11-02T02:29:36.993Z,99.10
2018-11-02T02:32:06.278Z,99.30
2018-11-02T02:34:34.959Z,99.30
2018-11-02T02:37:03.705Z,99.40
2018-11-02T02:39:32.373Z,99.40
2018-11-02T02:42:01.060Z,99.40
2018-11-02T02:44:29.764Z,99.40
2018-11-02T02:46:58.457Z,99.40
2018-11-02T02:49:27.153Z,99.40
2018-11-02T02:51:55.871Z,99.30
2018-11-02T02:54:24.599Z,99.30
2018-11-02T02:56:53.309Z,99.30
2018-11-02T02:59:21.977Z,99.30
2018-11-02T03:01:50.776Z,99.30
2018-11-02T03:04:19.446Z,99.20
2018-11-02T03:06:48.137Z,99.20
2018-11-02T03:09:16.822Z,99.10
2018-11-02T03:11:45.535Z,99.10
2018-11-02T03:14:14.236Z,98.90
2018-11-02T03:16:43.152Z,98.80
2018-11-02T03:19:11.920Z,98.70
2018-11-02T03:21:40.871Z,98.60
2018-11-02T03:24:09.582Z,98.40
2018-11-02T03:26:38.284Z,98.30
2018-11-02T03:29:07.008Z,98.20
2018-11-02T03:31:35.692Z,98.20
2018-11-02T03:34:04.696Z,98.30
2018-11-02T03:36:33.374Z,98.40
2018-11-02T03:39:02.169Z,98.40
2018-11-02T03:41:30.833Z,98.30
2018-11-02T03:43:59.498Z,98.30
2018-11-02T03:46:28.214Z,98.40
2018-11-02T03:48:56.948Z,98.50
2018-11-02T03:51:25.633Z,98.70
2018-11-02T03:53:54.753Z,98.70
2018-11-02T03:56:23.425Z,98.60
2018-11-02T03:58:52.208Z,98.50
2018-11-02T04:01:21.126Z,98.40
2018-11-02T04:03:50.000Z,98.30
2018-11-02T04:06:18.696Z,98.10
2018-11-02T04:08:47.496Z,97.90
2018-11-02T04:11:16.182Z,97.90
2018-11-02T04:13:44.854Z,98.00
2018-11-02T04:16:13.504Z,98.10
2018-11-02T04:18:42.225Z,98.10
2018-11-02T04:21:10.868Z,98.20
2018-11-02T04:23:39.581Z,98.20
2018-11-02T04:26:08.290Z,98.30
2018-11-02T04:28:37.022Z,98.30
2018-11-02T04:31:06.101Z,98.30
2018-11-02T04:33:34.764Z,98.30
2018-11-02T04:36:03.530Z,98.40
2018-11-02T04:38:32.219Z,98.00
2018-11-02T04:41:00.880Z,98.00
2018-11-02T04:43:29.759Z,98.00
2018-11-02T04:45:58.421Z,98.00
2018-11-02T04:48:27.115Z,98.00
2018-11-02T04:50:55.925Z,98.00
2018-11-02T04:53:24.540Z,98.00
2018-11-02T04:55:53.261Z,98.10
2018-11-02T04:58:21.958Z,98.10
2018-11-02T05:00:50.607Z,98.00
2018-11-02T05:03:19.609Z,98.00
2018-11-02T05:05:48.275Z,97.90
2018-11-02T05:08:16.993Z,97.90
2018-11-02T05:10:45.709Z,98.00
2018-11-02T05:13:14.393Z,98.20
2018-11-02T05:15:43.179Z,98.10
2018-11-02T05:18:12.174Z,98.10
2018-11-02T05:20:40.858Z,98.20
2018-11-02T05:23:09.570Z,98.70
2018-11-02T05:25:38.341Z,99.00
2018-11-02T05:28:07.080Z,98.90
2018-11-02T05:30:35.798Z,98.80
2018-11-02T05:33:04.892Z,98.70
2018-11-02T05:35:33.782Z,98.70
2018-11-02T05:38:02.508Z,98.70
2018-11-02T05:40:33.163Z,98.70
2018-11-02T05:43:03.421Z,98.80
2018-11-02T05:45:34.042Z,98.80
2018-11-02T05:48:03.072Z,98.80
2018-11-02T05:50:31.769Z,98.80
2018-11-02T05:53:00.468Z,98.80
2018-11-02T05:55:29.176Z,98.80
2018-11-02T05:57:57.864Z,98.80
2018-11-02T06:00:26.560Z,98.90
2018-11-02T06:02:55.253Z,98.80
2018-11-02T06:05:23.975Z,98.80
2018-11-02T06:07:52.909Z,98.80
2018-11-02T06:10:21.557Z,98.70
2018-11-02T06:12:50.263Z,98.70
2018-11-02T06:15:18.993Z,98.60
2018-11-02T06:17:47.659Z,98.70
2018-11-02T06:20:16.369Z,98.70
2018-11-02T06:22:45.072Z,98.70
2018-11-02T06:25:13.746Z,98.70
2018-11-02T06:27:42.399Z,98.70
2018-11-02T06:30:11.733Z,98.60
2018-11-02T06:32:40.397Z,98.60
2018-11-02T06:35:09.750Z,98.60
2018-11-02T06:37:38.445Z,98.60
2018-11-02T06:40:07.484Z,98.50
2018-11-02T06:42:36.213Z,98.50
2018-11-02T06:45:05.511Z,98.50
2018-11-02T06:47:40.597Z,98.40
2018-11-02T06:50:09.532Z,98.30
2018-11-02T06:52:38.236Z,98.40
2018-11-02T06:55:07.831Z,98.40
2018-11-02T06:57:36.647Z,98.60
2018-11-02T07:00:09.187Z,98.50
2018-11-02T07:02:37.799Z,98.50
2018-11-02T07:05:06.563Z,98.50
2018-11-02T07:07:35.889Z,98.50
2018-11-02T07:10:04.625Z,98.50
2018-11-02T07:12:33.401Z,98.40
2018-11-02T07:15:02.116Z,98.40
2018-11-02T07:17:30.838Z,98.30
2018-11-02T07:19:59.537Z,98.30
2018-11-02T07:22:28.281Z,98.30
2018-11-02T07:24:57.104Z,98.30
2018-11-02T07:27:25.794Z,98.00
2018-11-02T07:29:54.460Z,97.90
2018-11-02T07:32:23.175Z,97.80
2018-11-02T07:34:51.873Z,97.60
2018-11-02T07:37:20.676Z,97.50
2018-11-02T07:39:49.381Z,97.50
2018-11-02T07:42:18.126Z,97.60
2018-11-02T07:44:46.795Z,97.60
2018-11-02T07:47:15.497Z,97.50
2018-11-02T07:49:44.396Z,97.60
2018-11-02T07:52:13.030Z,97.70
2018-11-02T07:54:41.957Z,97.90
2018-11-02T07:57:11.864Z,98.00
2018-11-02T07:59:40.658Z,98.20
2018-11-02T08:02:09.395Z,98.20
2018-11-02T08:04:38.093Z,98.10
2018-11-02T08:07:07.321Z,98.10
2018-11-02T08:09:37.387Z,98.00
2018-11-02T08:12:06.848Z,98.10
2018-11-02T08:14:35.514Z,98.00
2018-11-02T08:17:04.287Z,98.20
2018-11-02T08:19:32.940Z,98.50
2018-11-02T08:22:01.753Z,98.50
2018-11-02T08:24:30.666Z,98.50
2018-11-02T08:26:59.514Z,98.00
2018-11-02T08:29:28.192Z,97.00
2018-11-02T08:31:56.882Z,96.80
2018-11-02T08:34:25.474Z,96.50
2018-11-02T08:36:57.543Z,96.20
2018-11-02T08:39:26.416Z,96.20
2018-11-02T08:41:55.099Z,96.00
2018-11-02T08:44:23.813Z,96.00
2018-11-02T08:46:52.505Z,95.60
2018-11-02T08:49:21.229Z,95.40
2018-11-02T08:51:49.969Z,95.00
2018-11-02T08:54:18.678Z,94.30
2018-11-02T08:56:47.413Z,93.20
2018-11-02T08:59:16.279Z,92.10
2018-11-02T09:01:44.851Z,91.40
2018-11-02T09:04:13.972Z,89.90
2018-11-02T09:06:42.625Z,90.40
2018-11-02T09:09:11.789Z,90.10
2018-11-02T09:11:41.463Z,90.00
2018-11-02T09:14:10.622Z,89.10
2018-11-02T09:16:39.354Z,88.70
2018-11-02T09:19:08.234Z,88.60
2018-11-02T09:21:36.933Z,87.20
2018-11-02T09:24:06.284Z,86.80
2018-11-02T09:26:34.994Z,86.50
2018-11-02T09:29:03.943Z,86.00
2018-11-02T09:31:32.610Z,85.70
2018-11-02T09:34:01.587Z,83.20
2018-11-02T09:36:30.297Z,81.60
2018-11-02T09:38:59.181Z,79.50
2018-11-02T09:41:27.858Z,77.90
2018-11-02T09:43:56.874Z,77.90
2018-11-02T09:46:25.590Z,78.80
2018-11-02T09:48:54.316Z,79.80
2018-11-02T09:51:23.301Z,81.40
2018-11-02T09:53:51.985Z,80.60
2018-11-02T09:56:21.699Z,80.20
2018-11-02T09:58:50.414Z,78.70
2018-11-02T10:01:19.166Z,78.40
2018-11-02T10:03:47.870Z,78.00
2018-11-02T10:06:19.524Z,78.00
2018-11-02T10:08:48.975Z,77.90
2018-11-02T10:11:17.791Z,77.90
2018-11-02T10:13:46.482Z,78.90
2018-11-02T10:16:15.193Z,80.20
2018-11-02T10:18:43.965Z,80.80
2018-11-02T10:21:12.840Z,81.00
2018-11-02T10:23:41.568Z,81.20
2018-11-02T10:26:10.346Z,81.30
2018-11-02T10:28:39.135Z,81.70
2018-11-02T10:31:07.870Z,82.00
2018-11-02T10:33:36.763Z,80.70
2018-11-02T10:36:06.409Z,77.90
2018-11-02T10:38:35.360Z,78.00
2018-11-02T10:41:05.234Z,79.10
2018-11-02T10:43:34.976Z,77.60
2018-11-02T10:46:04.185Z,75.30
2018-11-02T10:48:32.878Z,74.90
2018-11-02T10:51:01.733Z,75.00
2018-11-02T10:53:30.757Z,73.80
2018-11-02T10:55:59.482Z,73.50
2018-11-02T10:58:28.198Z,70.60
2018-11-02T11:01:02.433Z,69.80
2018-11-02T11:03:31.003Z,70.90
2018-11-02T11:05:59.732Z,69.10
2018-11-02T11:08:30.561Z,69.40
2018-11-02T11:10:59.378Z,69.50
2018-11-02T11:13:28.464Z,68.90
2018-11-02T11:15:56.976Z,67.90
2018-11-02T11:18:25.693Z,67.80
2018-11-02T11:20:54.391Z,65.90
2018-11-02T11:23:23.009Z,62.90
2018-11-02T11:25:52.812Z,65.00
2018-11-02T11:28:21.775Z,65.50
2018-11-02T11:30:50.840Z,64.20
2018-11-02T11:33:19.570Z,63.20
2018-11-02T11:35:48.304Z,62.00
2018-11-02T11:38:17.094Z,63.50
2018-11-02T11:40:45.890Z,63.50
2018-11-02T11:43:14.576Z,63.20
2018-11-02T11:45:43.312Z,60.90
2018-11-02T11:48:12.172Z,63.00
2018-11-02T11:50:40.863Z,61.60
2018-11-02T11:53:09.653Z,63.00
2018-11-02T11:55:38.376Z,61.10
2018-11-02T11:58:07.085Z,61.90
2018-11-02T12:00:37.039Z,62.00
2018-11-02T12:03:05.939Z,61.30
2018-11-02T12:05:34.778Z,62.00
2018-11-02T12:08:03.445Z,60.00
2018-11-02T12:10:32.293Z,58.40
2018-11-02T12:13:01.053Z,61.00
2018-11-02T12:15:31.092Z,62.60
2018-11-02T12:18:01.310Z,62.70
2018-11-02T12:20:31.227Z,60.90
2018-11-02T12:23:02.765Z,58.80
2018-11-02T12:25:32.187Z,61.50
2018-11-02T12:28:00.904Z,62.10
2018-11-02T12:30:30.146Z,62.00
2018-11-02T12:32:58.880Z,61.70
2018-11-02T12:35:27.612Z,61.10
2018-11-02T12:37:56.466Z,60.60
2018-11-02T12:40:25.463Z,59.90
2018-11-02T12:42:55.585Z,59.40
2018-11-02T12:45:29.635Z,60.50
2018-11-02T12:47:58.403Z,60.80
2018-11-02T12:50:28.321Z,61.00
2018-11-02T12:52:58.539Z,61.90
2018-11-02T12:55:27.205Z,60.80
2018-11-02T12:57:55.950Z,60.20
2018-11-02T13:00:25.901Z,60.80
2018-11-02T13:02:55.197Z,61.40
2018-11-02T13:05:24.618Z,62.30
2018-11-02T13:07:53.312Z,61.00
2018-11-02T13:10:22.770Z,60.90
2018-11-02T13:12:51.962Z,61.20
2018-11-02T13:15:22.017Z,61.30
2018-11-02T13:17:51.088Z,62.20
2018-11-02T13:20:19.903Z,62.80
2018-11-02T13:22:49.619Z,63.20
2018-11-02T13:25:21.514Z,62.70
2018-11-02T13:27:50.778Z,61.00
2018-11-02T13:30:19.675Z,62.30
2018-11-02T13:32:48.295Z,61.90
2018-11-02T13:35:18.250Z,61.20
2018-11-02T13:37:47.556Z,62.10
2018-11-02T13:40:18.627Z,62.90
2018-11-02T13:42:52.833Z,63.40
2018-11-02T13:45:23.161Z,63.40
2018-11-02T13:47:52.102Z,63.40
2018-11-02T13:50:20.825Z,63.50
2018-11-02T13:52:49.592Z,63.20
2018-11-02T13:55:18.220Z,64.00
2018-11-02T13:57:47.005Z,64.40
2018-11-02T14:00:17.441Z,64.90
2018-11-02T14:02:51.409Z,64.90
2018-11-02T14:05:21.811Z,65.00
2018-11-02T14:07:50.687Z,65.70
2018-11-02T14:10:19.384Z,65.70
2018-11-02T14:12:48.121Z,66.60
2018-11-02T14:15:17.401Z,66.90
2018-11-02T14:17:46.396Z,67.20
2018-11-02T14:20:15.389Z,66.80
2018-11-02T14:22:44.200Z,66.80
2018-11-02T14:25:15.307Z,67.20
2018-11-02T14:27:44.661Z,67.80
2018-11-02T14:30:15.822Z,68.30
2018-11-02T14:32:45.090Z,68.50
2018-11-02T14:35:15.178Z,68.60
2018-11-02T14:37:45.370Z,68.50
2018-11-02T14:40:15.040Z,68.80
2018-11-02T14:42:44.029Z,69.10
2018-11-02T14:45:14.983Z,69.10
2018-11-02T14:47:49.955Z,69.50
2018-11-02T14:50:18.669Z,69.60
2018-11-02T14:52:47.620Z,70.10
2018-11-02T14:55:16.382Z,68.00
2018-11-02T14:57:48.405Z,66.90
2018-11-02T15:00:18.350Z,67.60
2018-11-02T15:02:48.139Z,67.90
2018-11-02T15:05:16.938Z,68.20
2018-11-02T15:07:47.734Z,69.10
2018-11-02T15:10:17.426Z,69.40
2018-11-02T15:12:56.382Z,70.20
2018-11-02T15:15:25.156Z,70.80
2018-11-02T15:17:53.779Z,71.00
2018-11-02T15:20:22.489Z,71.40
2018-11-02T15:22:51.193Z,72.00
2018-11-02T15:25:19.951Z,72.80
2018-11-02T15:27:48.695Z,73.00
2018-11-02T15:30:17.373Z,73.00
2018-11-02T15:32:46.132Z,73.40
2018-11-02T15:35:14.924Z,73.70
2018-11-02T15:37:44.194Z,74.10
2018-11-02T15:40:13.929Z,74.60
2018-11-02T15:42:43.189Z,75.20
2018-11-02T15:45:13.649Z,75.50
2018-11-02T15:47:43.365Z,75.90
2018-11-02T15:50:12.550Z,76.00
2018-11-02T15:52:41.975Z,76.20
2018-11-02T15:55:12.566Z,76.40
2018-11-02T15:57:41.298Z,76.60
2018-11-02T16:00:13.397Z,76.60
2018-11-02T16:02:42.075Z,76.90
2018-11-02T16:05:18.566Z,77.20
2018-11-02T16:07:47.276Z,77.30
2018-11-02T16:10:16.076Z,77.80
2018-11-02T16:12:45.015Z,78.30
2018-11-02T16:15:13.967Z,78.50
2018-11-02T16:17:42.601Z,78.80
2018-11-02T16:20:13.253Z,79.50
2018-11-02T16:22:42.285Z,79.90
2018-11-02T16:25:11.143Z,80.20
2018-11-02T16:27:40.239Z,80.20
2018-11-02T16:30:09.872Z,80.50
2018-11-02T16:32:38.505Z,80.80
2018-11-02T16:35:08.468Z,81.10
2018-11-02T16:37:37.372Z,81.50
2018-11-02T16:40:09.187Z,82.00
2018-11-02T16:42:37.859Z,82.20
2018-11-02T16:45:09.148Z,82.40
2018-11-02T16:47:39.516Z,82.60
2018-11-02T16:50:10.063Z,82.60
2018-11-02T16:52:38.744Z,82.70
2018-11-02T16:55:07.898Z,82.60
2018-11-02T16:57:36.900Z,82.80
2018-11-02T17:00:10.196Z,82.90
2018-11-02T17:02:39.091Z,83.10
2018-11-02T17:05:08.217Z,83.40
2018-11-02T17:07:37.191Z,83.40
2018-11-02T17:10:07.417Z,83.70
2018-11-02T17:12:36.159Z,83.80
2018-11-02T17:15:05.105Z,84.00
2018-11-02T17:17:33.916Z,84.20
2018-11-02T17:20:02.756Z,84.30
2018-11-02T17:22:32.051Z,84.40
2018-11-02T17:25:00.747Z,85.10
2018-11-02T17:27:29.419Z,85.10
2018-11-02T17:29:58.221Z,85.10
2018-11-02T17:32:26.938Z,85.10
2018-11-02T17:34:55.641Z,85.30
2018-11-02T17:37:24.426Z,85.30
2018-11-02T17:39:53.067Z,85.30
2018-11-02T17:42:21.771Z,85.30
2018-11-02T17:44:50.627Z,85.40
2018-11-02T17:47:19.328Z,85.60
2018-11-02T17:49:48.135Z,85.70
2018-11-02T17:52:16.884Z,85.80
2018-11-02T17:54:45.599Z,85.80
2018-11-02T17:57:14.294Z,86.20
2018-11-02T17:59:43.043Z,86.30
2018-11-02T18:02:11.718Z,86.70
2018-11-02T18:04:40.477Z,86.90
2018-11-02T18:07:09.400Z,87.00
2018-11-02T18:09:38.288Z,87.20
2018-11-02T18:12:07.333Z,87.30
2018-11-02T18:14:36.311Z,87.30
2018-11-02T18:17:04.993Z,87.40
2018-11-02T18:19:33.730Z,87.60
2018-11-02T18:22:02.394Z,87.70
2018-11-02T18:24:31.123Z,87.70
2018-11-02T18:26:59.843Z,87.80
2018-11-02T18:29:28.504Z,87.80
2018-11-02T18:31:57.214Z,87.80
2018-11-02T18:34:25.850Z,87.80
2018-11-02T18:36:54.569Z,88.00
2018-11-02T18:39:23.257Z,88.10
2018-11-02T18:41:51.930Z,88.10
2018-11-02T18:44:20.897Z,88.20
2018-11-02T18:46:49.630Z,88.40
2018-11-02T18:49:18.352Z,88.40
2018-11-02T18:51:47.114Z,88.40
2018-11-02T18:54:15.710Z,88.60
2018-11-02T18:56:44.426Z,88.60
2018-11-02T18:59:13.104Z,88.70
2018-11-02T19:01:41.826Z,89.40
2018-11-02T19:04:10.677Z,89.60
2018-11-02T19:06:39.364Z,89.90
2018-11-02T19:09:09.693Z,89.90
2018-11-02T19:11:38.723Z,90.10
2018-11-02T19:14:07.503Z,90.10
2018-11-02T19:16:37.319Z,90.00
2018-11-02T19:19:11.363Z,90.00
2018-11-02T19:21:40.168Z,90.10
2018-11-02T19:24:08.840Z,90.10
2018-11-02T19:26:37.559Z,90.10
2018-11-02T19:29:06.697Z,90.10
2018-11-02T19:31:35.437Z,90.20
2018-11-02T19:34:04.271Z,90.20
2018-11-02T19:36:32.940Z,90.30
2018-11-02T19:39:01.689Z,90.20
2018-11-02T19:41:31.157Z,90.10
2018-11-02T19:43:59.891Z,90.40
2018-11-02T19:46:28.549Z,90.40
2018-11-02T19:48:57.285Z,90.60
2018-11-02T19:51:25.956Z,90.70
2018-11-02T19:53:55.183Z,90.70
2018-11-02T19:56:24.061Z,90.70
2018-11-02T19:58:52.723Z,90.80
2018-11-02T20:01:22.299Z,90.80
2018-11-02T20:03:51.368Z,90.80
2018-11-02T20:06:20.046Z,90.80
2018-11-02T20:08:48.785Z,90.80
2018-11-02T20:11:17.592Z,91.20
2018-11-02T20:13:46.365Z,91.10
2018-11-02T20:16:15.068Z,91.10
2018-11-02T20:18:44.116Z,91.40
2018-11-02T20:21:12.785Z,91.50
2018-11-02T20:23:41.480Z,91.60
2018-11-02T20:26:10.205Z,91.60
2018-11-02T20:28:38.928Z,91.60
2018-11-02T20:31:08.205Z,91.70
2018-11-02T20:33:37.760Z,91.70
2018-11-02T20:36:06.793Z,91.50
2018-11-02T20:38:35.555Z,91.40
2018-11-02T20:41:05.277Z,91.40
2018-11-02T20:43:34.029Z,91.10
2018-11-02T20:46:03.225Z,90.90
2018-11-02T20:48:38.526Z,89.90
2018-11-02T20:51:08.016Z,89.20
2018-11-02T20:53:36.768Z,88.50
2018-11-02T20:56:05.950Z,88.30
2018-11-02T20:58:34.953Z,88.40
2018-11-02T21:01:03.705Z,88.20
2018-11-02T21:03:32.477Z,88.30
2018-11-02T21:06:01.718Z,88.30
2018-11-02T21:08:39.057Z,88.30
2018-11-02T21:11:08.307Z,88.50
2018-11-02T21:13:37.060Z,88.60
2018-11-02T21:16:06.354Z,88.50
2018-11-02T21:18:43.685Z,88.70
2018-11-02T21:21:12.492Z,88.70
2018-11-02T21:23:41.104Z,88.30
2018-11-02T21:26:09.819Z,88.40
2018-11-02T21:28:39.002Z,88.40
2018-11-02T21:31:07.768Z,88.20
2018-11-02T21:33:36.526Z,88.20
2018-11-02T21:36:05.557Z,88.00
2018-11-02T21:38:34.225Z,88.10
2018-11-02T21:41:02.951Z,88.00
2018-11-02T21:43:31.649Z,87.80
2018-11-02T21:46:00.346Z,87.80
2018-11-02T21:48:29.110Z,87.40
2018-11-02T21:50:57.832Z,87.60
2018-11-02T21:53:26.723Z,87.60
2018-11-02T21:55:55.360Z,87.60
2018-11-02T21:58:24.391Z,87.90
2018-11-02T22:00:54.680Z,87.90
2018-11-02T22:03:23.521Z,88.00
2018-11-02T22:05:53.041Z,87.90
2018-11-02T22:08:21.740Z,88.00
2018-11-02T22:10:51.440Z,88.00
2018-11-02T22:13:20.265Z,88.10
2018-11-02T22:15:48.958Z,87.70
2018-11-02T22:18:17.641Z,87.80
2018-11-02T22:20:46.323Z,88.00
2018-11-02T22:23:15.106Z,88.10
2018-11-02T22:25:43.761Z,88.20
2018-11-02T22:28:12.571Z,88.30
2018-11-02T22:30:42.290Z,88.20
2018-11-02T22:33:17.656Z,87.90
2018-11-02T22:35:46.280Z,87.90
2018-11-02T22:38:15.533Z,88.10
2018-11-02T22:40:44.172Z,88.30
2018-11-02T22:43:13.916Z,88.70
2018-11-02T22:45:42.589Z,89.10
2018-11-02T22:48:16.536Z,89.10
2018-11-02T22:50:45.883Z,89.20
2018-11-02T22:53:14.643Z,89.30
2018-11-02T22:55:43.321Z,89.50
2018-11-02T22:58:12.057Z,89.50
2018-11-02T23:00:45.982Z,89.50
2018-11-02T23:03:14.693Z,89.60
2018-11-02T23:05:43.455Z,89.70
2018-11-02T23:08:12.089Z,90.00
2018-11-02T23:10:40.787Z,90.00
2018-11-02T23:13:09.609Z,90.10
2018-11-02T23:15:38.298Z,90.20
2018-11-02T23:18:07.037Z,90.20
2018-11-02T23:20:35.766Z,90.10
2018-11-02T23:23:04.579Z,90.00
2018-11-02T23:25:33.205Z,89.80
2018-11-02T23:28:02.179Z,89.80
2018-11-02T23:30:31.577Z,89.70
2018-11-02T23:33:00.567Z,89.70
2018-11-02T23:35:29.231Z,89.60
2018-11-02T23:37:57.937Z,89.40
2018-11-02T23:40:26.556Z,89.40
2018-11-02T23:42:55.306Z,89.30
2018-11-02T23:45:24.157Z,89.40
2018-11-02T23:47:56.826Z,89.40
2018-11-02T23:50:25.984Z,89.40
2018-11-02T23:52:54.680Z,89.30
2018-11-02T23:55:23.174Z,89.20
2018-11-02T23:57:53.270Z,89.20
